sensor_id;sensor_type;location;lat;lon;timestamp;pressure;altitude;pressure_sealevel;temperature;humidity
60212;BME280;46079;48.686;15.598;2023-05-29T00:01:32;99938.00;;;21.35;55.17
60212;BME280;46079;48.686;15.598;2023-05-29T00:03:58;99937.19;;;21.34;55.54
60212;BME280;46079;48.686;15.598;2023-05-29T00:06:24;99934.41;;;21.36;55.61
60212;BME280;46079;48.686;15.598;2023-05-29T00:08:49;99937.03;;;21.36;55.43
60212;BME280;46079;48.686;15.598;2023-05-29T00:11:15;99930.81;;;21.37;55.60
60212;BME280;46079;48.686;15.598;2023-05-29T00:13:41;99934.28;;;21.37;55.57
60212;BME280;46079;48.686;15.598;2023-05-29T00:16:07;99940.38;;;21.38;55.53
60212;BME280;46079;48.686;15.598;2023-05-29T00:18:34;99933.31;;;21.38;55.54
60212;BME280;46079;48.686;15.598;2023-05-29T00:21:00;99937.75;;;21.38;55.45
60212;BME280;46079;48.686;15.598;2023-05-29T00:23:25;99941.06;;;21.40;55.60
60212;BME280;46079;48.686;15.598;2023-05-29T00:25:51;99938.44;;;21.40;55.62
60212;BME280;46079;48.686;15.598;2023-05-29T00:28:16;99937.47;;;21.41;55.63
60212;BME280;46079;48.686;15.598;2023-05-29T00:30:42;99936.63;;;21.40;55.61
60212;BME280;46079;48.686;15.598;2023-05-29T00:33:07;99923.47;;;21.40;55.70
60212;BME280;46079;48.686;15.598;2023-05-29T00:35:33;99928.59;;;21.42;55.79
60212;BME280;46079;48.686;15.598;2023-05-29T00:37:59;99926.94;;;21.41;55.61
60212;BME280;46079;48.686;15.598;2023-05-29T00:40:25;99938.28;;;21.41;55.77
60212;BME280;46079;48.686;15.598;2023-05-29T00:42:50;99933.03;;;21.41;55.80
60212;BME280;46079;48.686;15.598;2023-05-29T00:45:16;99930.25;;;21.43;55.54
60212;BME280;46079;48.686;15.598;2023-05-29T00:47:42;99932.88;;;21.43;55.69
60212;BME280;46079;48.686;15.598;2023-05-29T00:50:11;99932.88;;;21.43;56.11
60212;BME280;46079;48.686;15.598;2023-05-29T00:52:40;99928.44;;;21.43;55.94
60212;BME280;46079;48.686;15.598;2023-05-29T00:55:06;99931.91;;;21.44;56.05
60212;BME280;46079;48.686;15.598;2023-05-29T00:57:34;99932.72;;;21.44;56.13
60212;BME280;46079;48.686;15.598;2023-05-29T01:00:01;99928.31;;;21.45;56.10
60212;BME280;46079;48.686;15.598;2023-05-29T01:02:29;99922.19;;;21.44;56.22
60212;BME280;46079;48.686;15.598;2023-05-29T01:04:56;99925.69;;;21.45;56.06
60212;BME280;46079;48.686;15.598;2023-05-29T01:07:22;99925.53;;;21.46;55.92
60212;BME280;46079;48.686;15.598;2023-05-29T01:09:47;99936.06;;;21.46;55.95
60212;BME280;46079;48.686;15.598;2023-05-29T01:15:41;99923.72;;;21.47;55.82
60212;BME280;46079;48.686;15.598;2023-05-29T01:21:15;99922.75;;;21.48;55.98
60212;BME280;46079;48.686;15.598;2023-05-29T01:29:29;99922.75;;;21.48;56.34
60212;BME280;46079;48.686;15.598;2023-05-29T01:32:16;99926.06;;;21.50;56.37
60212;BME280;46079;48.686;15.598;2023-05-29T01:34:42;99921.78;;;21.49;56.61
60212;BME280;46079;48.686;15.598;2023-05-29T01:37:08;99921.78;;;21.49;56.42
60212;BME280;46079;48.686;15.598;2023-05-29T01:39:34;99924.28;;;21.50;56.53
60212;BME280;46079;48.686;15.598;2023-05-29T01:42:00;99925.09;;;21.51;56.32
60212;BME280;46079;48.686;15.598;2023-05-29T01:44:27;99923.28;;;21.51;56.48
60212;BME280;46079;48.686;15.598;2023-05-29T01:46:54;99918.84;;;21.52;56.26
60212;BME280;46079;48.686;15.598;2023-05-29T01:49:20;99921.34;;;21.53;56.37
60212;BME280;46079;48.686;15.598;2023-05-29T01:51:48;99914.41;;;21.52;56.27
60212;BME280;46079;48.686;15.598;2023-05-29T01:54:14;99923.16;;;21.53;56.27
60212;BME280;46079;48.686;15.598;2023-05-29T01:56:39;99924.81;;;21.54;56.29
60212;BME280;46079;48.686;15.598;2023-05-29T01:59:05;99922.19;;;21.54;56.25
60212;BME280;46079;48.686;15.598;2023-05-29T02:01:32;99928.25;;;21.54;56.16
60212;BME280;46079;48.686;15.598;2023-05-29T02:03:58;99920.38;;;21.54;56.33
60212;BME280;46079;48.686;15.598;2023-05-29T02:06:23;99920.38;;;21.54;55.82
60212;BME280;46079;48.686;15.598;2023-05-29T02:08:48;99924.81;;;21.54;56.05
60212;BME280;46079;48.686;15.598;2023-05-29T02:11:14;99919.53;;;21.54;56.05
60212;BME280;46079;48.686;15.598;2023-05-29T02:13:39;99926.47;;;21.55;56.16
60212;BME280;46079;48.686;15.598;2023-05-29T02:16:05;99915.94;;;21.55;55.98
60212;BME280;46079;48.686;15.598;2023-05-29T02:18:30;99911.66;;;21.54;55.96
60212;BME280;46079;48.686;15.598;2023-05-29T02:20:56;99921.19;;;21.55;56.03
60212;BME280;46079;48.686;15.598;2023-05-29T02:23:21;99914.97;;;21.56;56.05
60212;BME280;46079;48.686;15.598;2023-05-29T02:25:47;99909.72;;;21.56;56.32
60212;BME280;46079;48.686;15.598;2023-05-29T02:28:12;99908.88;;;21.56;56.30
60212;BME280;46079;48.686;15.598;2023-05-29T02:30:38;99904.44;;;21.56;56.32
60212;BME280;46079;48.686;15.598;2023-05-29T02:33:03;99908.03;;;21.55;55.96
60212;BME280;46079;48.686;15.598;2023-05-29T02:35:29;99903.63;;;21.56;56.28
60212;BME280;46079;48.686;15.598;2023-05-29T02:37:54;99904.44;;;21.56;56.04
60212;BME280;46079;48.686;15.598;2023-05-29T02:40:20;99908.72;;;21.57;55.97
60212;BME280;46079;48.686;15.598;2023-05-29T02:42:46;99900.81;;;21.57;56.07
60212;BME280;46079;48.686;15.598;2023-05-29T02:45:12;99900.81;;;21.57;56.28
60212;BME280;46079;48.686;15.598;2023-05-29T02:47:37;99895.56;;;21.57;55.96
60212;BME280;46079;48.686;15.598;2023-05-29T02:50:04;99890.31;;;21.57;56.03
60212;BME280;46079;48.686;15.598;2023-05-29T02:52:31;99895.56;;;21.57;56.09
60212;BME280;46079;48.686;15.598;2023-05-29T02:54:56;99896.38;;;21.58;56.04
60212;BME280;46079;48.686;15.598;2023-05-29T02:57:22;99900.81;;;21.57;55.93
60212;BME280;46079;48.686;15.598;2023-05-29T02:59:48;99901.66;;;21.58;55.97
60212;BME280;46079;48.686;15.598;2023-05-29T03:02:14;99906.09;;;21.57;56.20
60212;BME280;46079;48.686;15.598;2023-05-29T03:04:39;99906.91;;;21.58;56.10
60212;BME280;46079;48.686;15.598;2023-05-29T03:07:05;99904.28;;;21.58;56.33
60212;BME280;46079;48.686;15.598;2023-05-29T03:09:32;99901.66;;;21.58;56.56
60212;BME280;46079;48.686;15.598;2023-05-29T03:11:57;99906.91;;;21.58;56.29
60212;BME280;46079;48.686;15.598;2023-05-29T03:14:23;99907.75;;;21.58;56.35
60212;BME280;46079;48.686;15.598;2023-05-29T03:16:49;99906.78;;;21.59;56.33
60212;BME280;46079;48.686;15.598;2023-05-29T03:19:15;99902.47;;;21.58;56.51
60212;BME280;46079;48.686;15.598;2023-05-29T03:21:41;99895.44;;;21.59;56.52
60212;BME280;46079;48.686;15.598;2023-05-29T03:24:06;99888.34;;;21.59;56.39
60212;BME280;46079;48.686;15.598;2023-05-29T03:26:32;99894.56;;;21.58;56.13
60212;BME280;46079;48.686;15.598;2023-05-29T03:28:57;99891.00;;;21.59;56.51
60212;BME280;46079;48.686;15.598;2023-05-29T03:31:22;99894.56;;;21.58;56.51
60212;BME280;46079;48.686;15.598;2023-05-29T03:33:49;99898.88;;;21.59;56.17
60212;BME280;46079;48.686;15.598;2023-05-29T03:36:14;99904.16;;;21.59;56.55
60212;BME280;46079;48.686;15.598;2023-05-29T03:38:42;99906.78;;;21.59;56.56
60212;BME280;46079;48.686;15.598;2023-05-29T03:41:08;99911.06;;;21.60;56.43
60212;BME280;46079;48.686;15.598;2023-05-29T03:43:33;99906.78;;;21.59;56.29
60212;BME280;46079;48.686;15.598;2023-05-29T03:45:59;99912.03;;;21.59;56.57
60212;BME280;46079;48.686;15.598;2023-05-29T03:48:24;99913.69;;;21.60;56.21
60212;BME280;46079;48.686;15.598;2023-05-29T03:50:50;99918.00;;;21.61;56.67
60212;BME280;46079;48.686;15.598;2023-05-29T03:53:15;99922.56;;;21.59;56.16
60212;BME280;46079;48.686;15.598;2023-05-29T03:55:40;99925.03;;;21.61;56.53
60212;BME280;46079;48.686;15.598;2023-05-29T03:58:07;99920.75;;;21.60;56.26
60212;BME280;46079;48.686;15.598;2023-05-29T04:00:32;99926.03;;;21.60;56.49
60212;BME280;46079;48.686;15.598;2023-05-29T04:02:57;99926.84;;;21.60;56.65
60212;BME280;46079;48.686;15.598;2023-05-29T04:05:23;99939.06;;;21.61;56.69
60212;BME280;46079;48.686;15.598;2023-05-29T04:07:48;99933.78;;;21.61;56.97
60212;BME280;46079;48.686;15.598;2023-05-29T04:10:14;99936.44;;;21.61;56.90
60212;BME280;46079;48.686;15.598;2023-05-29T04:12:40;99929.34;;;21.62;56.86
60212;BME280;46079;48.686;15.598;2023-05-29T04:15:06;99931.16;;;21.61;57.02
60212;BME280;46079;48.686;15.598;2023-05-29T04:17:32;99926.56;;;21.63;56.82
60212;BME280;46079;48.686;15.598;2023-05-29T04:19:57;99933.78;;;21.61;53.44
60212;BME280;46079;48.686;15.598;2023-05-29T04:22:23;99928.66;;;21.60;51.84
60212;BME280;46079;48.686;15.598;2023-05-29T04:24:48;99933.22;;;21.58;51.20
60212;BME280;46079;48.686;15.598;2023-05-29T04:27:14;99933.41;;;21.56;51.07
60212;BME280;46079;48.686;15.598;2023-05-29T04:29:41;99942.25;;;21.55;50.71
60212;BME280;46079;48.686;15.598;2023-05-29T04:32:07;99940.59;;;21.54;50.95
60212;BME280;46079;48.686;15.598;2023-05-29T04:34:35;99948.78;;;21.51;50.70
60212;BME280;46079;48.686;15.598;2023-05-29T04:37:01;99949.75;;;21.50;50.82
60212;BME280;46079;48.686;15.598;2023-05-29T04:39:28;99948.09;;;21.49;50.71
60212;BME280;46079;48.686;15.598;2023-05-29T04:41:53;99957.81;;;21.48;50.86
60212;BME280;46079;48.686;15.598;2023-05-29T04:44:19;99961.41;;;21.47;50.49
60212;BME280;46079;48.686;15.598;2023-05-29T04:46:44;99957.94;;;21.47;50.76
60212;BME280;46079;48.686;15.598;2023-05-29T04:49:11;99960.72;;;21.45;50.44
60212;BME280;46079;48.686;15.598;2023-05-29T04:51:38;99964.31;;;21.44;50.71
60212;BME280;46079;48.686;15.598;2023-05-29T04:54:06;99974.00;;;21.44;50.55
60212;BME280;46079;48.686;15.598;2023-05-29T04:56:32;99972.38;;;21.43;50.62
60212;BME280;46079;48.686;15.598;2023-05-29T04:58:57;99971.53;;;21.42;50.22
60212;BME280;46079;48.686;15.598;2023-05-29T05:01:24;99975.94;;;21.42;50.23
60212;BME280;46079;48.686;15.598;2023-05-29T05:03:51;99979.44;;;21.42;50.35
60212;BME280;46079;48.686;15.598;2023-05-29T05:06:19;99970.69;;;21.42;50.60
60212;BME280;46079;48.686;15.598;2023-05-29T05:08:46;99975.94;;;21.42;51.15
60212;BME280;46079;48.686;15.598;2023-05-29T05:11:11;99967.94;;;21.43;50.77
60212;BME280;46079;48.686;15.598;2023-05-29T05:13:37;99978.31;;;21.45;50.38
60212;BME280;46079;48.686;15.598;2023-05-29T05:16:02;99970.44;;;21.45;50.77
60212;BME280;46079;48.686;15.598;2023-05-29T05:18:28;99968.47;;;21.47;50.63
60212;BME280;46079;48.686;15.598;2023-05-29T05:20:53;99973.06;;;21.45;50.38
60212;BME280;46079;48.686;15.598;2023-05-29T05:23:19;99970.44;;;21.45;50.24
60212;BME280;46079;48.686;15.598;2023-05-29T05:25:44;99966.94;;;21.44;50.30
60212;BME280;46079;48.686;15.598;2023-05-29T05:28:09;99968.75;;;21.44;50.42
60212;BME280;46079;48.686;15.598;2023-05-29T05:30:35;99968.75;;;21.44;50.43
60212;BME280;46079;48.686;15.598;2023-05-29T05:33:00;99975.81;;;21.43;50.13
60212;BME280;46079;48.686;15.598;2023-05-29T05:35:26;99970.56;;;21.43;50.32
60212;BME280;46079;48.686;15.598;2023-05-29T05:37:51;99973.19;;;21.43;50.05
60212;BME280;46079;48.686;15.598;2023-05-29T05:40:18;99969.72;;;21.43;50.08
60212;BME280;46079;48.686;15.598;2023-05-29T05:42:43;99975.81;;;21.43;50.27
60212;BME280;46079;48.686;15.598;2023-05-29T05:45:09;99974.16;;;21.42;50.18
60212;BME280;46079;48.686;15.598;2023-05-29T05:47:34;99976.81;;;21.42;50.07
60212;BME280;46079;48.686;15.598;2023-05-29T05:50:00;99969.72;;;21.43;49.98
60212;BME280;46079;48.686;15.598;2023-05-29T05:52:26;99972.38;;;21.43;50.16
60212;BME280;46079;48.686;15.598;2023-05-29T05:54:56;99975.94;;;21.42;50.18
60212;BME280;46079;48.686;15.598;2023-05-29T05:57:21;99981.22;;;21.42;50.02
60212;BME280;46079;48.686;15.598;2023-05-29T05:59:47;99985.53;;;21.43;50.14
60212;BME280;46079;48.686;15.598;2023-05-29T06:02:12;99989.97;;;21.42;49.71
60212;BME280;46079;48.686;15.598;2023-05-29T06:04:37;99997.84;;;21.42;49.71
60212;BME280;46079;48.686;15.598;2023-05-29T06:07:03;99991.72;;;21.42;49.34
60212;BME280;46079;48.686;15.598;2023-05-29T06:09:29;99994.38;;;21.42;49.54
60212;BME280;46079;48.686;15.598;2023-05-29T06:11:54;100000.63;;;21.41;49.31
60212;BME280;46079;48.686;15.598;2023-05-29T06:14:20;99998.97;;;21.40;49.21
60212;BME280;46079;48.686;15.598;2023-05-29T06:16:45;100003.25;;;21.41;49.17
60212;BME280;46079;48.686;15.598;2023-05-29T06:19:11;100002.56;;;21.39;48.78
60212;BME280;46079;48.686;15.598;2023-05-29T06:21:37;99998.13;;;21.39;49.30
60212;BME280;46079;48.686;15.598;2023-05-29T06:24:03;100002.56;;;21.39;49.54
60212;BME280;46079;48.686;15.598;2023-05-29T06:26:28;100006.84;;;21.40;49.29
60212;BME280;46079;48.686;15.598;2023-05-29T06:28:54;100007.81;;;21.39;49.50
60212;BME280;46079;48.686;15.598;2023-05-29T06:31:19;100007.00;;;21.38;49.18
60212;BME280;46079;48.686;15.598;2023-05-29T06:33:45;100007.81;;;21.39;48.94
60212;BME280;46079;48.686;15.598;2023-05-29T06:36:10;100017.50;;;21.38;49.05
60212;BME280;46079;48.686;15.598;2023-05-29T06:38:36;100010.59;;;21.37;48.88
60212;BME280;46079;48.686;15.598;2023-05-29T06:41:02;100013.22;;;21.37;48.72
60212;BME280;46079;48.686;15.598;2023-05-29T06:43:28;100009.75;;;21.37;48.57
60212;BME280;46079;48.686;15.598;2023-05-29T06:45:54;100012.50;;;21.35;48.23
60212;BME280;46079;48.686;15.598;2023-05-29T06:48:19;100010.69;;;21.36;48.31
60212;BME280;46079;48.686;15.598;2023-05-29T06:50:45;100011.69;;;21.35;48.22
60212;BME280;46079;48.686;15.598;2023-05-29T06:53:10;100014.31;;;21.35;48.19
60212;BME280;46079;48.686;15.598;2023-05-29T06:55:36;100014.31;;;21.35;48.40
60212;BME280;46079;48.686;15.598;2023-05-29T06:58:01;100022.22;;;21.35;48.18
60212;BME280;46079;48.686;15.598;2023-05-29T07:00:27;100012.63;;;21.33;47.93
60212;BME280;46079;48.686;15.598;2023-05-29T07:02:53;100014.44;;;21.33;47.89
60212;BME280;46079;48.686;15.598;2023-05-29T07:05:19;100019.69;;;21.33;47.86
60212;BME280;46079;48.686;15.598;2023-05-29T07:07:44;100022.34;;;21.33;47.92
60212;BME280;46079;48.686;15.598;2023-05-29T07:10:11;100019.69;;;21.33;47.96
60212;BME280;46079;48.686;15.598;2023-05-29T07:12:37;100027.59;;;21.33;47.68
60212;BME280;46079;48.686;15.598;2023-05-29T07:15:03;100031.06;;;21.33;48.54
60212;BME280;46079;48.686;15.598;2023-05-29T07:17:28;100026.78;;;21.32;48.08
60212;BME280;46079;48.686;15.598;2023-05-29T07:19:54;100026.78;;;21.32;48.41
60212;BME280;46079;48.686;15.598;2023-05-29T07:22:19;100025.13;;;21.31;48.12
60212;BME280;46079;48.686;15.598;2023-05-29T07:24:45;100025.13;;;21.31;47.99
60212;BME280;46079;48.686;15.598;2023-05-29T07:27:10;100016.41;;;21.31;48.20
60212;BME280;46079;48.686;15.598;2023-05-29T07:29:36;100017.22;;;21.31;48.05
60212;BME280;46079;48.686;15.598;2023-05-29T07:32:01;100026.94;;;21.31;48.00
60212;BME280;46079;48.686;15.598;2023-05-29T07:34:27;100026.06;;;21.30;47.74
60212;BME280;46079;48.686;15.598;2023-05-29T07:37:03;100030.50;;;21.30;48.18
60212;BME280;46079;48.686;15.598;2023-05-29T07:39:29;100027.88;;;21.30;47.59
60212;BME280;46079;48.686;15.598;2023-05-29T07:41:55;100033.16;;;21.30;47.33
60212;BME280;46079;48.686;15.598;2023-05-29T07:44:21;100034.94;;;21.29;47.48
60212;BME280;46079;48.686;15.598;2023-05-29T07:46:46;100033.97;;;21.30;47.36
60212;BME280;46079;48.686;15.598;2023-05-29T07:49:13;100031.34;;;21.30;47.25
60212;BME280;46079;48.686;15.598;2023-05-29T07:51:39;100039.22;;;21.30;47.63
60212;BME280;46079;48.686;15.598;2023-05-29T07:54:05;100036.59;;;21.30;47.15
60212;BME280;46079;48.686;15.598;2023-05-29T07:56:30;100037.59;;;21.29;47.53
60212;BME280;46079;48.686;15.598;2023-05-29T07:58:56;100040.22;;;21.29;47.46
60212;BME280;46079;48.686;15.598;2023-05-29T08:01:22;100036.59;;;21.30;47.75
60212;BME280;46079;48.686;15.598;2023-05-29T08:03:48;100036.59;;;21.30;47.72
60212;BME280;46079;48.686;15.598;2023-05-29T08:06:14;100040.22;;;21.29;47.59
60212;BME280;46079;48.686;15.598;2023-05-29T08:08:39;100038.28;;;21.31;47.42
60212;BME280;46079;48.686;15.598;2023-05-29T08:11:05;100035.66;;;21.31;48.06
60212;BME280;46079;48.686;15.598;2023-05-29T08:13:30;100048.81;;;21.31;48.06
60212;BME280;46079;48.686;15.598;2023-05-29T08:15:56;100045.34;;;21.31;47.76
60212;BME280;46079;48.686;15.598;2023-05-29T08:18:25;100045.34;;;21.31;48.18
60212;BME280;46079;48.686;15.598;2023-05-29T08:20:50;100048.81;;;21.31;48.11
60212;BME280;46079;48.686;15.598;2023-05-29T08:23:16;100050.44;;;21.32;47.96
60212;BME280;46079;48.686;15.598;2023-05-29T08:25:42;100039.94;;;21.32;47.98
60212;BME280;46079;48.686;15.598;2023-05-29T08:28:07;100045.19;;;21.32;47.99
60212;BME280;46079;48.686;15.598;2023-05-29T08:30:33;100044.22;;;21.33;48.22
60212;BME280;46079;48.686;15.598;2023-05-29T08:32:58;100049.63;;;21.32;47.83
60212;BME280;46079;48.686;15.598;2023-05-29T08:35:24;100050.44;;;21.32;47.52
60212;BME280;46079;48.686;15.598;2023-05-29T08:37:49;100047.00;;;21.32;47.42
60212;BME280;46079;48.686;15.598;2023-05-29T08:40:15;100048.66;;;21.33;47.63
60212;BME280;46079;48.686;15.598;2023-05-29T08:42:51;100048.81;;;21.31;47.58
60212;BME280;46079;48.686;15.598;2023-05-29T08:45:22;100046.00;;;21.33;47.59
60212;BME280;46079;48.686;15.598;2023-05-29T08:47:51;100046.84;;;21.33;47.92
60212;BME280;46079;48.686;15.598;2023-05-29T08:50:19;100043.38;;;21.33;47.55
60212;BME280;46079;48.686;15.598;2023-05-29T08:52:45;100038.94;;;21.33;47.90
60212;BME280;46079;48.686;15.598;2023-05-29T08:55:10;100042.44;;;21.34;47.79
60212;BME280;46079;48.686;15.598;2023-05-29T08:57:36;100048.53;;;21.35;47.95
60212;BME280;46079;48.686;15.598;2023-05-29T09:00:04;100044.91;;;21.36;48.22
60212;BME280;46079;48.686;15.598;2023-05-29T09:02:39;100037.00;;;21.36;48.09
60212;BME280;46079;48.686;15.598;2023-05-29T09:05:04;100038.81;;;21.35;48.45
60212;BME280;46079;48.686;15.598;2023-05-29T09:07:32;100042.28;;;21.36;48.30
60212;BME280;46079;48.686;15.598;2023-05-29T09:09:59;100035.19;;;21.36;48.24
60212;BME280;46079;48.686;15.598;2023-05-29T09:12:26;100033.44;;;21.37;48.49
60212;BME280;46079;48.686;15.598;2023-05-29T09:14:51;100035.09;;;21.38;48.48
60212;BME280;46079;48.686;15.598;2023-05-29T09:17:17;100029.03;;;21.37;48.56
60212;BME280;46079;48.686;15.598;2023-05-29T09:19:42;100026.22;;;21.39;48.47
60212;BME280;46079;48.686;15.598;2023-05-29T09:22:10;100036.75;;;21.39;48.57
60212;BME280;46079;48.686;15.598;2023-05-29T09:24:37;100046.34;;;21.40;48.68
60212;BME280;46079;48.686;15.598;2023-05-29T09:27:04;100034.13;;;21.39;48.62
60212;BME280;46079;48.686;15.598;2023-05-29T09:29:33;100042.03;;;21.39;48.51
60212;BME280;46079;48.686;15.598;2023-05-29T09:32:18;100041.06;;;21.40;48.64
60212;BME280;46079;48.686;15.598;2023-05-29T09:34:44;100041.88;;;21.40;48.56
60212;BME280;46079;48.686;15.598;2023-05-29T09:37:10;100032.19;;;21.41;48.56
60212;BME280;46079;48.686;15.598;2023-05-29T09:39:50;100035.66;;;21.41;48.92
60212;BME280;46079;48.686;15.598;2023-05-29T09:42:17;100031.22;;;21.42;48.74
60212;BME280;46079;48.686;15.598;2023-05-29T09:44:45;100026.94;;;21.41;48.94
60212;BME280;46079;48.686;15.598;2023-05-29T09:47:16;100031.38;;;21.40;48.79
60212;BME280;46079;48.686;15.598;2023-05-29T09:49:42;100033.84;;;21.42;48.83
60212;BME280;46079;48.686;15.598;2023-05-29T09:52:15;100023.31;;;21.42;48.85
60212;BME280;46079;48.686;15.598;2023-05-29T09:54:45;100021.66;;;21.41;48.65
60212;BME280;46079;48.686;15.598;2023-05-29T09:57:13;100029.44;;;21.42;49.10
60212;BME280;46079;48.686;15.598;2023-05-29T09:59:41;100019.72;;;21.43;49.06
60212;BME280;46079;48.686;15.598;2023-05-29T10:02:10;100025.94;;;21.42;48.90
60212;BME280;46079;48.686;15.598;2023-05-29T10:04:37;100019.72;;;21.43;48.92
60212;BME280;46079;48.686;15.598;2023-05-29T10:07:10;100016.13;;;21.44;49.00
60212;BME280;46079;48.686;15.598;2023-05-29T10:09:41;100018.91;;;21.42;49.07
60212;BME280;46079;48.686;15.598;2023-05-29T10:12:11;100010.16;;;21.42;48.80
60212;BME280;46079;48.686;15.598;2023-05-29T10:14:37;100013.63;;;21.42;49.24
60212;BME280;46079;48.686;15.598;2023-05-29T10:17:07;100013.63;;;21.42;49.19
60212;BME280;46079;48.686;15.598;2023-05-29T10:19:36;100014.59;;;21.41;49.15
60212;BME280;46079;48.686;15.598;2023-05-29T10:22:04;100014.47;;;21.43;48.95
60212;BME280;46079;48.686;15.598;2023-05-29T10:24:32;100010.84;;;21.44;49.15
60212;BME280;46079;48.686;15.598;2023-05-29T10:26:58;100002.13;;;21.43;49.07
60212;BME280;46079;48.686;15.598;2023-05-29T10:29:36;100010.03;;;21.43;49.03
60212;BME280;46079;48.686;15.598;2023-05-29T10:32:27;99994.25;;;21.43;49.33
60212;BME280;46079;48.686;15.598;2023-05-29T10:37:46;100006.41;;;21.44;49.25
60212;BME280;46079;48.686;15.598;2023-05-29T10:40:14;99995.06;;;21.44;49.12
60212;BME280;46079;48.686;15.598;2023-05-29T10:42:47;99992.44;;;21.44;49.29
60212;BME280;46079;48.686;15.598;2023-05-29T10:47:55;99983.72;;;21.43;49.44
60212;BME280;46079;48.686;15.598;2023-05-29T10:50:46;99989.81;;;21.44;49.50
60212;BME280;46079;48.686;15.598;2023-05-29T10:53:16;99989.81;;;21.44;49.49
60212;BME280;46079;48.686;15.598;2023-05-29T10:55:43;99994.25;;;21.43;49.40
60212;BME280;46079;48.686;15.598;2023-05-29T10:58:14;99992.44;;;21.44;49.36
60212;BME280;46079;48.686;15.598;2023-05-29T11:00:45;99992.44;;;21.44;49.32
60212;BME280;46079;48.686;15.598;2023-05-29T11:03:21;100000.31;;;21.44;49.42
60212;BME280;46079;48.686;15.598;2023-05-29T11:06:07;99995.06;;;21.44;49.30
60212;BME280;46079;48.686;15.598;2023-05-29T11:08:42;99995.06;;;21.44;49.38
60212;BME280;46079;48.686;15.598;2023-05-29T11:11:32;100000.31;;;21.44;49.42
60212;BME280;46079;48.686;15.598;2023-05-29T11:14:04;99995.06;;;21.44;49.67
60212;BME280;46079;48.686;15.598;2023-05-29T11:18:57;99982.72;;;21.44;49.29
60212;BME280;46079;48.686;15.598;2023-05-29T11:24:02;99988.84;;;21.45;49.75
60212;BME280;46079;48.686;15.598;2023-05-29T11:26:29;99988.84;;;21.45;49.67
60212;BME280;46079;48.686;15.598;2023-05-29T11:29:03;99985.34;;;21.44;49.61
60212;BME280;46079;48.686;15.598;2023-05-29T11:31:32;99984.53;;;21.44;49.67
60212;BME280;46079;48.686;15.598;2023-05-29T11:34:02;99981.91;;;21.44;49.60
60212;BME280;46079;48.686;15.598;2023-05-29T11:36:31;99980.09;;;21.44;49.58
60212;BME280;46079;48.686;15.598;2023-05-29T11:38:58;99980.94;;;21.45;49.47
60212;BME280;46079;48.686;15.598;2023-05-29T11:41:23;99980.94;;;21.45;49.68
60212;BME280;46079;48.686;15.598;2023-05-29T11:43:59;99985.34;;;21.44;49.75
60212;BME280;46079;48.686;15.598;2023-05-29T11:46:26;99971.38;;;21.44;49.74
60212;BME280;46079;48.686;15.598;2023-05-29T11:48:53;99977.47;;;21.44;49.60
60212;BME280;46079;48.686;15.598;2023-05-29T11:51:18;99974.84;;;21.44;49.85
60212;BME280;46079;48.686;15.598;2023-05-29T11:53:46;99974.72;;;21.46;49.95
60212;BME280;46079;48.686;15.598;2023-05-29T11:56:12;99965.16;;;21.45;49.48
60212;BME280;46079;48.686;15.598;2023-05-29T11:58:39;99975.69;;;21.45;49.81
60212;BME280;46079;48.686;15.598;2023-05-29T12:01:05;99965.97;;;21.45;49.81
60212;BME280;46079;48.686;15.598;2023-05-29T12:03:37;99973.88;;;21.45;49.73
60212;BME280;46079;48.686;15.598;2023-05-29T12:06:03;99966.81;;;21.46;49.98
60212;BME280;46079;48.686;15.598;2023-05-29T12:08:32;99974.72;;;21.46;49.87
60212;BME280;46079;48.686;15.598;2023-05-29T12:10:57;99964.19;;;21.46;49.60
60212;BME280;46079;48.686;15.598;2023-05-29T12:13:23;99963.34;;;21.45;49.76
60212;BME280;46079;48.686;15.598;2023-05-29T12:15:53;99961.53;;;21.46;49.95
60212;BME280;46079;48.686;15.598;2023-05-29T12:18:19;99964.19;;;21.46;49.73
60212;BME280;46079;48.686;15.598;2023-05-29T12:20:45;99961.53;;;21.46;49.92
60212;BME280;46079;48.686;15.598;2023-05-29T12:23:11;99957.94;;;21.47;49.92
60212;BME280;46079;48.686;15.598;2023-05-29T12:25:39;99963.19;;;21.47;49.94
60212;BME280;46079;48.686;15.598;2023-05-29T12:28:05;99956.28;;;21.46;49.79
60212;BME280;46079;48.686;15.598;2023-05-29T12:30:31;99957.94;;;21.47;49.85
60212;BME280;46079;48.686;15.598;2023-05-29T12:32:56;99946.59;;;21.46;49.93
60212;BME280;46079;48.686;15.598;2023-05-29T12:35:24;99942.13;;;21.47;49.85
60212;BME280;46079;48.686;15.598;2023-05-29T12:38:00;99948.38;;;21.46;50.05
60212;BME280;46079;48.686;15.598;2023-05-29T12:40:28;99950.03;;;21.47;50.09
60212;BME280;46079;48.686;15.598;2023-05-29T12:42:59;99951.84;;;21.46;50.08
60212;BME280;46079;48.686;15.598;2023-05-29T12:45:26;99948.25;;;21.47;50.00
60212;BME280;46079;48.686;15.598;2023-05-29T12:48:00;99944.63;;;21.48;49.84
60212;BME280;46079;48.686;15.598;2023-05-29T12:50:28;99947.41;;;21.47;49.87
60212;BME280;46079;48.686;15.598;2023-05-29T12:55:39;99946.44;;;21.48;49.91
60212;BME280;46079;48.686;15.598;2023-05-29T12:58:06;99941.19;;;21.48;49.99
60212;BME280;46079;48.686;15.598;2023-05-29T13:00:33;99938.56;;;21.48;49.85
60212;BME280;46079;48.686;15.598;2023-05-29T13:02:59;99943.81;;;21.48;50.09
60212;BME280;46079;48.686;15.598;2023-05-29T13:05:25;99940.19;;;21.49;49.83
60212;BME280;46079;48.686;15.598;2023-05-29T13:07:51;99929.66;;;21.49;50.18
60212;BME280;46079;48.686;15.598;2023-05-29T13:10:18;99936.75;;;21.48;49.98